createdAt,value
2023-03-26T00:00:48.822Z,6.62
2023-03-26T00:01:48.837Z,6.66
2023-03-26T00:02:48.797Z,6.68
2023-03-26T00:03:48.772Z,6.63
2023-03-26T00:04:48.749Z,6.68
2023-03-26T00:05:48.788Z,6.62
2023-03-26T00:06:48.764Z,6.68
2023-03-26T00:07:48.742Z,6.71
2023-03-26T00:08:48.717Z,6.58
2023-03-26T00:09:48.712Z,6.66
2023-03-26T00:10:48.719Z,6.66
2023-03-26T00:11:48.683Z,6.65
2023-03-26T00:12:48.681Z,6.73
2023-03-26T00:13:48.665Z,6.73
2023-03-26T00:14:48.649Z,6.62
2023-03-26T00:15:48.657Z,6.71
2023-03-26T00:16:48.677Z,6.69
2023-03-26T00:17:48.657Z,6.79
2023-03-26T00:18:48.644Z,6.76
2023-03-26T00:19:48.605Z,6.72
2023-03-26T00:20:48.631Z,6.71
2023-03-26T00:21:48.588Z,6.69
2023-03-26T00:22:48.556Z,6.80
2023-03-26T00:23:48.575Z,6.66
2023-03-26T00:24:48.547Z,6.79
2023-03-26T00:25:49.541Z,6.73
2023-03-26T00:26:48.589Z,6.77
2023-03-26T00:27:48.515Z,6.80
2023-03-26T00:28:48.514Z,6.83
2023-03-26T00:29:48.510Z,6.76
2023-03-26T00:30:48.544Z,6.77
2023-03-26T00:31:48.475Z,6.79
2023-03-26T00:32:53.496Z,6.81
2023-03-26T00:33:49.445Z,6.80
2023-03-26T00:34:48.436Z,6.81
2023-03-26T00:35:48.458Z,6.97
2023-03-26T00:36:48.429Z,6.95
2023-03-26T00:37:48.410Z,6.95
2023-03-26T00:38:48.405Z,6.91
2023-03-26T00:39:48.383Z,6.84
2023-03-26T00:40:48.404Z,6.91
2023-03-26T00:41:48.381Z,6.95
2023-03-26T00:42:48.371Z,6.94
2023-03-26T00:43:48.356Z,6.95
2023-03-26T00:44:48.339Z,6.91
2023-03-26T00:45:48.385Z,6.95
2023-03-26T00:46:48.322Z,6.98
2023-03-26T00:47:48.343Z,6.95
2023-03-26T00:48:48.314Z,6.91
2023-03-26T00:49:48.317Z,6.95
2023-03-26T00:50:48.299Z,6.94
2023-03-26T00:51:48.274Z,6.97
2023-03-26T00:52:48.259Z,6.99
2023-03-26T00:53:48.253Z,6.91
2023-03-26T00:54:48.252Z,6.94
2023-03-26T00:55:48.240Z,6.90
2023-03-26T00:56:48.348Z,6.89
2023-03-26T00:57:48.206Z,6.91
2023-03-26T00:58:48.217Z,6.94
2023-03-26T00:59:48.183Z,6.86
2023-03-26T01:00:48.209Z,6.80
2023-03-26T01:01:48.195Z,6.79
2023-03-26T01:02:48.227Z,6.83
2023-03-26T01:04:04.801Z,6.87
2023-03-26T01:04:50.147Z,6.81
2023-03-26T01:05:48.121Z,6.80
2023-03-26T01:06:48.142Z,6.84
2023-03-26T01:07:48.101Z,6.89
2023-03-26T01:08:48.128Z,6.79
2023-03-26T01:09:48.076Z,6.87
2023-03-26T01:10:48.060Z,6.79
2023-03-26T01:11:48.097Z,6.80
2023-03-26T01:12:48.058Z,6.84
2023-03-26T01:13:48.033Z,6.87
2023-03-26T01:14:48.625Z,6.80
2023-03-26T01:15:48.076Z,6.87
2023-03-26T01:16:48.020Z,6.84
2023-03-26T01:17:48.011Z,6.77
2023-03-26T01:18:47.981Z,6.89
2023-03-26T01:19:47.978Z,6.90
2023-03-26T01:20:47.956Z,6.94
2023-03-26T01:21:48.004Z,6.87
2023-03-26T01:22:47.949Z,6.90
2023-03-26T01:23:47.957Z,6.89
2023-03-26T01:24:47.929Z,6.90
2023-03-26T01:25:47.921Z,6.87
2023-03-26T01:26:47.939Z,6.83
2023-03-26T01:27:47.900Z,6.86
2023-03-26T01:28:47.892Z,6.87
2023-03-26T01:29:47.861Z,6.90
2023-03-26T01:30:47.850Z,6.95
2023-03-26T01:31:47.875Z,6.90
2023-03-26T01:32:47.919Z,6.91
2023-03-26T01:33:47.838Z,6.86
2023-03-26T01:34:47.811Z,6.89
2023-03-26T01:35:47.827Z,6.84
2023-03-26T01:36:47.830Z,6.81
2023-03-26T01:37:47.784Z,6.84
2023-03-26T01:38:47.770Z,6.73
2023-03-26T01:39:47.744Z,6.80
2023-03-26T01:40:47.739Z,6.69
2023-03-26T01:41:47.779Z,6.80
2023-03-26T01:42:47.719Z,6.71
2023-03-26T01:43:47.707Z,6.68
2023-03-26T01:44:47.694Z,6.68
2023-03-26T01:45:47.703Z,6.54
2023-03-26T01:46:47.738Z,6.59
2023-03-26T01:47:47.726Z,6.54
2023-03-26T01:48:47.649Z,6.56
2023-03-26T01:49:47.660Z,6.53
2023-03-26T01:50:47.629Z,6.51
2023-03-26T01:51:47.678Z,6.51
2023-03-26T01:52:47.608Z,6.62
2023-03-26T01:53:47.607Z,6.63
2023-03-26T01:54:47.597Z,6.56
2023-03-26T01:55:47.583Z,6.59
2023-03-26T01:56:47.623Z,6.48
2023-03-26T01:57:47.563Z,6.62
2023-03-26T01:58:47.573Z,6.58
2023-03-26T01:59:47.549Z,6.50
2023-03-26T02:00:47.542Z,6.51
2023-03-26T02:01:47.594Z,6.62
2023-03-26T02:02:47.602Z,6.61
2023-03-26T02:03:47.536Z,6.46
2023-03-26T02:04:47.485Z,6.61
2023-03-26T02:05:47.490Z,6.59
2023-03-26T02:06:47.515Z,6.62
2023-03-26T02:07:47.465Z,6.53
2023-03-26T02:08:47.464Z,6.62
2023-03-26T02:09:47.452Z,6.58
2023-03-26T02:10:47.425Z,6.54
2023-03-26T02:11:47.447Z,6.47
2023-03-26T02:12:47.412Z,6.56
2023-03-26T02:13:47.401Z,6.50
2023-03-26T02:14:47.420Z,6.38
2023-03-26T02:15:47.454Z,6.56
2023-03-26T02:16:47.394Z,6.53
2023-03-26T02:17:47.356Z,6.48
2023-03-26T02:18:47.373Z,6.47
2023-03-26T02:19:47.324Z,6.44
2023-03-26T02:20:47.328Z,6.47
2023-03-26T02:21:47.333Z,6.50
2023-03-26T02:22:47.296Z,6.50
2023-03-26T02:23:47.340Z,6.48
2023-03-26T02:24:47.274Z,6.59
2023-03-26T02:25:47.267Z,6.47
2023-03-26T02:26:47.293Z,6.46
2023-03-26T02:27:47.233Z,6.47
2023-03-26T02:28:47.235Z,6.41
2023-03-26T02:29:47.215Z,6.47
2023-03-26T02:30:47.209Z,6.54
2023-03-26T02:31:47.244Z,6.43
2023-03-26T02:32:47.222Z,6.56
2023-03-26T02:33:47.181Z,6.56
2023-03-26T02:34:47.188Z,6.47
2023-03-26T02:35:47.244Z,6.43
2023-03-26T02:36:47.213Z,6.41
2023-03-26T02:37:47.172Z,6.48
2023-03-26T02:38:47.130Z,6.43
2023-03-26T02:39:47.102Z,6.48
2023-03-26T02:40:47.095Z,6.44
2023-03-26T02:41:47.089Z,6.50
2023-03-26T02:42:47.097Z,6.36
2023-03-26T02:43:47.063Z,6.38
2023-03-26T02:44:47.079Z,6.41
2023-03-26T02:45:47.099Z,6.36
2023-03-26T02:46:47.043Z,6.38
2023-03-26T02:47:47.041Z,6.40
2023-03-26T02:48:47.027Z,6.38
2023-03-26T02:49:47.053Z,6.33
2023-03-26T02:50:46.989Z,6.46
2023-03-26T02:51:46.989Z,6.47
2023-03-26T02:52:46.997Z,6.46
2023-03-26T02:53:46.958Z,6.33
2023-03-26T02:54:46.950Z,6.53
2023-03-26T02:55:46.932Z,6.51
2023-03-26T02:56:46.937Z,6.43
2023-03-26T02:57:46.984Z,6.54
2023-03-26T02:58:46.944Z,6.47
2023-03-26T02:59:46.916Z,6.48
2023-03-26T03:00:46.952Z,6.51
2023-03-26T03:01:46.892Z,6.53
2023-03-26T03:02:46.950Z,6.48
2023-03-26T03:03:46.855Z,6.50
2023-03-26T03:04:46.836Z,6.46
2023-03-26T03:05:46.831Z,6.53
2023-03-26T03:06:46.821Z,6.54
2023-03-26T03:07:46.855Z,6.46
2023-03-26T03:08:46.815Z,6.44
2023-03-26T03:09:46.785Z,6.53
2023-03-26T03:10:46.771Z,6.53
2023-03-26T03:11:46.763Z,6.47
2023-03-26T03:12:46.786Z,6.48
2023-03-26T03:13:47.002Z,6.46
2023-03-26T03:14:46.732Z,6.47
2023-03-26T03:15:46.728Z,6.51
2023-03-26T03:16:46.729Z,6.51
2023-03-26T03:17:46.750Z,6.51
2023-03-26T03:18:46.693Z,6.59
2023-03-26T03:19:46.697Z,6.65
2023-03-26T03:20:46.698Z,6.48
2023-03-26T03:21:47.654Z,6.66
2023-03-26T03:22:46.684Z,6.51
2023-03-26T03:23:46.639Z,6.46
2023-03-26T03:24:46.631Z,6.40
2023-03-26T03:25:46.629Z,6.51
2023-03-26T03:26:46.604Z,6.36
2023-03-26T03:27:46.602Z,6.51
2023-03-26T03:28:46.587Z,6.48
2023-03-26T03:29:46.589Z,6.48
2023-03-26T03:30:46.615Z,6.58
2023-03-26T03:31:46.554Z,6.51
2023-03-26T03:32:46.603Z,6.56
2023-03-26T03:33:46.605Z,6.58
2023-03-26T03:34:46.517Z,6.58
2023-03-26T03:35:46.522Z,6.66
2023-03-26T03:36:46.503Z,6.56
2023-03-26T03:37:46.517Z,6.66
2023-03-26T03:38:46.479Z,6.63
2023-03-26T03:39:46.461Z,6.62
2023-03-26T03:40:46.449Z,6.63
2023-03-26T03:41:46.437Z,6.65
2023-03-26T03:42:46.468Z,6.58
2023-03-26T03:43:46.414Z,6.61
2023-03-26T03:44:46.414Z,6.56
2023-03-26T03:45:46.436Z,6.51
2023-03-26T03:46:46.405Z,6.46
2023-03-26T03:47:46.471Z,6.58
2023-03-26T03:48:46.371Z,6.56
2023-03-26T03:49:46.358Z,6.65
2023-03-26T03:50:46.347Z,6.63
2023-03-26T03:51:46.356Z,6.54
2023-03-26T03:52:46.336Z,6.62
2023-03-26T03:53:46.306Z,6.63
2023-03-26T03:54:46.304Z,6.56
2023-03-26T03:55:46.293Z,6.69
2023-03-26T03:56:46.282Z,6.59
2023-03-26T03:57:46.300Z,6.65
2023-03-26T03:58:46.279Z,6.62
2023-03-26T03:59:47.850Z,6.77
2023-03-26T04:00:46.243Z,6.66
2023-03-26T04:01:46.227Z,6.68
2023-03-26T04:02:46.371Z,6.65
2023-03-26T04:03:46.923Z,6.77
2023-03-26T04:04:46.199Z,6.68
2023-03-26T04:05:46.207Z,6.71
2023-03-26T04:06:46.185Z,6.76
2023-03-26T04:07:46.163Z,6.73
2023-03-26T04:08:46.215Z,6.76
2023-03-26T04:09:46.145Z,6.81
2023-03-26T04:10:46.133Z,6.84
2023-03-26T04:11:46.151Z,6.83
2023-03-26T04:12:46.109Z,6.83
2023-03-26T04:13:46.130Z,6.71
2023-03-26T04:14:46.101Z,6.76
2023-03-26T04:15:46.126Z,6.84
2023-03-26T04:16:46.082Z,6.83
2023-03-26T04:17:46.092Z,6.66
2023-03-26T04:18:46.138Z,6.84
2023-03-26T04:19:46.038Z,6.80
2023-03-26T04:20:46.026Z,6.81
2023-03-26T04:21:46.015Z,6.81
2023-03-26T04:22:46.009Z,6.81
2023-03-26T04:23:46.017Z,6.76
2023-03-26T04:24:45.989Z,6.73
2023-03-26T04:25:45.984Z,6.83
2023-03-26T04:26:45.958Z,6.79
2023-03-26T04:27:45.945Z,6.76
2023-03-26T04:28:45.971Z,6.84
2023-03-26T04:29:45.968Z,6.89
2023-03-26T04:30:45.946Z,6.73
2023-03-26T04:31:45.940Z,6.76
2023-03-26T04:32:45.937Z,6.72
2023-03-26T04:34:12.282Z,6.83
2023-03-26T04:34:45.874Z,6.76
2023-03-26T04:35:45.915Z,6.80
2023-03-26T04:36:45.853Z,6.69
2023-03-26T04:37:45.862Z,6.81
2023-03-26T04:38:45.852Z,6.76
2023-03-26T04:39:45.830Z,6.77
2023-03-26T04:40:45.803Z,6.81
2023-03-26T04:41:45.797Z,6.73
2023-03-26T04:42:45.796Z,6.79
2023-03-26T04:43:45.806Z,6.86
2023-03-26T04:44:45.770Z,6.76
2023-03-26T04:45:45.762Z,6.86
2023-03-26T04:46:45.780Z,6.77
2023-03-26T04:47:45.769Z,6.77
2023-03-26T04:48:45.746Z,6.81
2023-03-26T04:49:45.713Z,6.87
2023-03-26T04:50:45.693Z,6.83
2023-03-26T04:51:45.689Z,6.79
2023-03-26T04:52:45.733Z,6.72
2023-03-26T04:53:45.710Z,6.69
2023-03-26T04:54:45.644Z,6.72
2023-03-26T04:55:45.632Z,6.77
2023-03-26T04:56:45.684Z,6.77
2023-03-26T04:57:45.621Z,6.73
2023-03-26T04:58:45.633Z,6.72
2023-03-26T04:59:45.612Z,6.71
2023-03-26T05:00:45.599Z,6.77
2023-03-26T05:01:45.604Z,6.69
2023-03-26T05:02:45.637Z,6.71
2023-03-26T05:03:45.686Z,6.65
2023-03-26T05:04:45.843Z,6.66
2023-03-26T05:05:45.529Z,6.66
2023-03-26T05:06:45.522Z,6.62
2023-03-26T05:07:45.505Z,6.68
2023-03-26T05:08:45.564Z,6.69
2023-03-26T05:09:45.497Z,6.69
2023-03-26T05:10:45.487Z,6.61
2023-03-26T05:11:45.472Z,6.65
2023-03-26T05:12:45.452Z,6.53
2023-03-26T05:13:45.464Z,6.56
2023-03-26T05:14:45.429Z,6.62
2023-03-26T05:15:45.420Z,6.51
2023-03-26T05:16:45.440Z,6.50
2023-03-26T05:17:45.400Z,6.54
2023-03-26T05:18:45.381Z,6.53
2023-03-26T05:19:45.379Z,6.46
2023-03-26T05:20:45.356Z,6.59
2023-03-26T05:21:45.381Z,6.46
2023-03-26T05:22:45.332Z,6.51
2023-03-26T05:23:45.349Z,6.48
2023-03-26T05:24:45.322Z,6.41
2023-03-26T05:25:45.296Z,6.46
2023-03-26T05:26:45.292Z,6.56
2023-03-26T05:27:45.278Z,6.46
2023-03-26T05:28:45.289Z,6.53
2023-03-26T05:29:45.270Z,6.54
2023-03-26T05:30:45.244Z,6.51
2023-03-26T05:31:45.235Z,6.48
2023-03-26T05:32:45.380Z,6.51
2023-03-26T05:33:45.281Z,6.62
2023-03-26T05:34:45.208Z,6.51
2023-03-26T05:35:45.252Z,6.54
2023-03-26T05:36:45.191Z,6.51
2023-03-26T05:37:45.170Z,6.72
2023-03-26T05:38:45.189Z,6.58
2023-03-26T05:39:45.151Z,6.61
2023-03-26T05:40:45.143Z,6.62
2023-03-26T05:41:45.126Z,6.50
2023-03-26T05:42:45.119Z,6.66
2023-03-26T05:43:45.166Z,6.51
2023-03-26T05:44:45.107Z,6.63
2023-03-26T05:45:45.125Z,6.50
2023-03-26T05:46:45.068Z,6.54
2023-03-26T05:47:45.096Z,6.53
2023-03-26T05:48:45.071Z,6.50
2023-03-26T05:49:45.036Z,6.66
2023-03-26T05:50:45.039Z,6.50
2023-03-26T05:51:45.017Z,6.63
2023-03-26T05:52:45.004Z,6.68
2023-03-26T05:53:45.011Z,6.69
2023-03-26T05:54:44.988Z,6.66
2023-03-26T05:55:45.012Z,6.66
2023-03-26T05:56:45.021Z,6.62
2023-03-26T05:57:44.960Z,6.63
2023-03-26T05:58:44.992Z,6.63
2023-03-26T05:59:44.923Z,6.65
2023-03-26T06:00:44.914Z,6.65
2023-03-26T06:01:44.937Z,6.65
2023-03-26T06:02:44.938Z,6.65
2023-03-26T06:03:45.214Z,6.71
2023-03-26T06:04:44.971Z,6.56
2023-03-26T06:05:44.886Z,6.69
2023-03-26T06:06:44.898Z,6.62
2023-03-26T06:07:44.851Z,6.56
2023-03-26T06:08:44.867Z,6.51
2023-03-26T06:09:44.832Z,6.66
2023-03-26T06:10:44.819Z,6.62
2023-03-26T06:11:44.862Z,6.56
2023-03-26T06:12:44.814Z,6.46
2023-03-26T06:13:44.776Z,6.50
2023-03-26T06:14:44.768Z,6.54
2023-03-26T06:15:44.801Z,6.63
2023-03-26T06:16:44.778Z,6.61
2023-03-26T06:17:44.796Z,6.68
2023-03-26T06:18:44.783Z,6.58
2023-03-26T06:19:44.718Z,6.65
2023-03-26T06:20:44.712Z,6.61
2023-03-26T06:21:44.701Z,6.65
2023-03-26T06:22:44.681Z,6.73
2023-03-26T06:23:44.712Z,6.69
2023-03-26T06:24:44.664Z,6.79
2023-03-26T06:25:44.647Z,6.80
2023-03-26T06:26:44.637Z,6.80
2023-03-26T06:27:44.626Z,6.77
2023-03-26T06:28:44.664Z,6.89
2023-03-26T06:29:44.617Z,6.98
2023-03-26T06:30:44.605Z,6.91
2023-03-26T06:31:44.678Z,7.04
2023-03-26T06:32:44.588Z,6.98
2023-03-26T06:33:44.593Z,6.99
2023-03-26T06:34:44.557Z,7.05
2023-03-26T06:35:44.569Z,7.05
2023-03-26T06:36:44.537Z,7.02
2023-03-26T06:37:44.558Z,6.99
2023-03-26T06:38:44.546Z,7.02
2023-03-26T06:39:44.502Z,6.99
2023-03-26T06:40:44.503Z,7.02
2023-03-26T06:41:44.499Z,7.07
2023-03-26T06:43:08.175Z,7.16
2023-03-26T06:43:45.499Z,7.22
2023-03-26T06:44:44.447Z,7.13
2023-03-26T06:45:44.459Z,7.24
2023-03-26T06:46:44.446Z,7.29
2023-03-26T06:47:44.478Z,7.20
2023-03-26T06:48:44.445Z,7.41
2023-03-26T06:49:45.396Z,7.38
2023-03-26T06:50:45.390Z,7.34
2023-03-26T06:51:44.376Z,7.38
2023-03-26T06:52:44.371Z,7.31
2023-03-26T06:53:44.393Z,7.42
2023-03-26T06:54:44.350Z,7.50
2023-03-26T06:55:44.339Z,7.35
2023-03-26T06:56:44.382Z,7.49
2023-03-26T06:57:44.322Z,7.47
2023-03-26T06:58:44.308Z,7.66
2023-03-26T06:59:44.318Z,7.66
2023-03-26T07:00:44.315Z,7.74
2023-03-26T07:01:45.879Z,7.82
2023-03-26T07:02:44.306Z,7.90
2023-03-26T07:03:44.276Z,8.03
2023-03-26T07:04:44.265Z,8.03
2023-03-26T07:05:44.238Z,8.17
2023-03-26T07:06:44.232Z,8.14
2023-03-26T07:07:46.294Z,8.26
2023-03-26T07:08:44.223Z,8.20
2023-03-26T07:09:44.214Z,8.26
2023-03-26T07:10:44.195Z,8.37
2023-03-26T07:11:44.182Z,8.35
2023-03-26T07:12:44.175Z,8.36
2023-03-26T07:13:44.157Z,8.50
2023-03-26T07:14:44.178Z,8.39
2023-03-26T07:15:44.159Z,8.47
2023-03-26T07:16:44.194Z,8.39
2023-03-26T07:17:44.152Z,8.40
2023-03-26T07:18:44.103Z,8.30
2023-03-26T07:19:44.128Z,8.37
2023-03-26T07:20:44.090Z,8.29
2023-03-26T07:21:44.090Z,8.33
2023-03-26T07:22:44.070Z,8.44
2023-03-26T07:23:44.064Z,8.35
2023-03-26T07:24:44.140Z,8.32
2023-03-26T07:25:44.041Z,8.32
2023-03-26T07:26:44.085Z,8.29
2023-03-26T07:27:44.024Z,8.44
2023-03-26T07:28:44.013Z,8.37
2023-03-26T07:29:45.029Z,8.40
2023-03-26T07:30:44.009Z,8.35
2023-03-26T07:31:43.992Z,8.39
2023-03-26T07:32:44.042Z,8.42
2023-03-26T07:33:43.961Z,8.40
2023-03-26T07:34:43.982Z,8.57
2023-03-26T07:35:44.042Z,8.53
2023-03-26T07:36:43.926Z,8.68
2023-03-26T07:37:44.097Z,8.62
2023-03-26T07:38:43.927Z,8.58
2023-03-26T07:39:43.933Z,8.62
2023-03-26T07:40:43.934Z,8.72
2023-03-26T07:41:43.887Z,8.71
2023-03-26T07:42:43.877Z,8.72
2023-03-26T07:43:44.000Z,8.87
2023-03-26T07:44:43.870Z,8.90
2023-03-26T07:45:43.914Z,8.87
2023-03-26T07:46:43.821Z,8.97
2023-03-26T07:47:43.827Z,8.99
2023-03-26T07:48:43.808Z,8.96
2023-03-26T07:49:43.826Z,8.93
2023-03-26T07:50:43.806Z,8.84
2023-03-26T07:51:43.781Z,8.91
2023-03-26T07:52:43.775Z,8.88
2023-03-26T07:53:43.773Z,8.88
2023-03-26T07:54:43.798Z,8.99
2023-03-26T07:55:43.755Z,8.96
2023-03-26T07:56:43.836Z,8.91
2023-03-26T07:57:43.757Z,9.01
2023-03-26T07:58:43.896Z,8.87
2023-03-26T07:59:43.758Z,8.87
2023-03-26T08:00:43.757Z,8.93
2023-03-26T08:01:43.710Z,8.94
2023-03-26T08:02:43.778Z,8.99
2023-03-26T08:03:43.720Z,8.97
2023-03-26T08:04:43.832Z,9.13
2023-03-26T08:05:43.661Z,9.06
2023-03-26T08:06:43.653Z,9.02
2023-03-26T08:07:43.653Z,9.16
2023-03-26T08:08:43.628Z,9.10
2023-03-26T08:09:43.632Z,9.20
2023-03-26T08:10:43.603Z,9.28
2023-03-26T08:11:43.614Z,9.23
2023-03-26T08:12:43.897Z,9.16
2023-03-26T08:13:43.586Z,9.12
2023-03-26T08:14:43.598Z,9.12
2023-03-26T08:15:43.603Z,9.10
2023-03-26T08:16:43.547Z,9.10
2023-03-26T08:17:43.585Z,9.13
2023-03-26T08:18:43.528Z,9.01
2023-03-26T08:19:43.524Z,9.21
2023-03-26T08:20:43.536Z,9.15
2023-03-26T08:21:43.494Z,9.24
2023-03-26T08:22:43.511Z,9.23
2023-03-26T08:23:50.330Z,9.30
2023-03-26T08:24:44.591Z,9.31
2023-03-26T08:25:43.517Z,9.39
2023-03-26T08:26:43.449Z,9.39
2023-03-26T08:27:43.457Z,9.40
2023-03-26T08:28:43.426Z,9.50
2023-03-26T08:29:44.433Z,9.32
2023-03-26T08:30:43.431Z,9.38
2023-03-26T08:31:43.396Z,9.48
2023-03-26T08:32:43.402Z,9.61
2023-03-26T08:33:43.394Z,9.56
2023-03-26T08:34:43.391Z,9.60
2023-03-26T08:35:43.388Z,9.58
2023-03-26T08:36:43.343Z,9.58
2023-03-26T08:37:43.344Z,9.67
2023-03-26T08:38:45.048Z,9.68
2023-03-26T08:39:43.347Z,9.68
2023-03-26T08:40:43.324Z,9.68
2023-03-26T08:41:43.324Z,9.61
2023-03-26T08:42:43.295Z,9.52
2023-03-26T08:43:43.283Z,9.53
2023-03-26T08:44:43.294Z,9.64
2023-03-26T08:45:43.297Z,9.66
2023-03-26T08:46:43.291Z,9.79
2023-03-26T08:47:43.280Z,9.73
2023-03-26T08:48:43.327Z,9.71
2023-03-26T08:49:43.275Z,9.81
2023-03-26T08:50:43.213Z,9.97
2023-03-26T08:51:43.230Z,10.01
2023-03-26T08:52:43.201Z,10.00
2023-03-26T08:53:43.185Z,10.12
2023-03-26T08:54:43.197Z,9.91
2023-03-26T08:55:43.171Z,9.86
2023-03-26T08:56:43.175Z,9.91
2023-03-26T08:57:43.144Z,9.85
2023-03-26T08:58:43.131Z,9.89
2023-03-26T08:59:43.195Z,9.93
2023-03-26T09:00:43.136Z,9.73
2023-03-26T09:01:43.213Z,9.79
2023-03-26T09:02:43.135Z,9.79
2023-03-26T09:03:43.122Z,9.78
2023-03-26T09:04:43.098Z,9.93
2023-03-26T09:05:43.078Z,9.86
2023-03-26T09:06:43.060Z,9.93
2023-03-26T09:07:43.050Z,10.01
2023-03-26T09:08:53.693Z,10.06
2023-03-26T09:09:44.054Z,10.09
2023-03-26T09:10:43.028Z,10.04
2023-03-26T09:11:43.016Z,9.99
2023-03-26T09:12:43.004Z,10.03
2023-03-26T09:13:42.997Z,10.09
2023-03-26T09:14:43.003Z,10.17
2023-03-26T09:15:42.974Z,10.09
2023-03-26T09:16:43.090Z,10.22
2023-03-26T09:17:42.978Z,10.17
2023-03-26T09:18:43.932Z,10.24
2023-03-26T09:19:42.968Z,10.07
2023-03-26T09:20:42.931Z,10.06
2023-03-26T09:21:42.914Z,10.15
2023-03-26T09:22:42.904Z,10.25
2023-03-26T09:23:42.888Z,10.19
2023-03-26T09:24:42.894Z,10.07
2023-03-26T09:25:42.901Z,10.06
2023-03-26T09:26:42.860Z,10.09
2023-03-26T09:27:42.859Z,10.03
2023-03-26T09:28:42.860Z,9.89
2023-03-26T09:29:42.887Z,9.96
2023-03-26T09:30:42.830Z,9.96
2023-03-26T09:31:42.891Z,10.04
2023-03-26T09:32:42.844Z,10.00
2023-03-26T09:33:42.806Z,10.09
2023-03-26T09:34:42.804Z,9.99
2023-03-26T09:35:42.800Z,10.00
2023-03-26T09:36:42.770Z,9.97
2023-03-26T09:37:56.211Z,10.01
2023-03-26T09:38:43.762Z,9.97
2023-03-26T09:39:42.750Z,10.00
2023-03-26T09:40:42.728Z,9.99
2023-03-26T09:41:42.730Z,10.04
2023-03-26T09:42:42.703Z,10.04
2023-03-26T09:43:42.729Z,10.06
2023-03-26T09:44:42.712Z,10.06
2023-03-26T09:45:42.699Z,10.03
2023-03-26T09:46:42.893Z,10.18
2023-03-26T09:47:42.711Z,10.12
2023-03-26T09:48:42.664Z,10.04
2023-03-26T09:49:42.811Z,10.19
2023-03-26T09:50:42.624Z,10.18
2023-03-26T09:51:42.620Z,10.09
2023-03-26T09:52:42.613Z,9.94
2023-03-26T09:53:42.592Z,10.04
2023-03-26T09:54:42.623Z,10.17
2023-03-26T09:55:42.579Z,10.14
2023-03-26T09:56:42.586Z,10.15
2023-03-26T09:57:42.608Z,9.99
2023-03-26T09:58:42.552Z,10.04
2023-03-26T09:59:42.544Z,10.07
2023-03-26T10:00:42.598Z,10.00
2023-03-26T10:01:42.539Z,10.18
2023-03-26T10:02:45.987Z,10.10
2023-03-26T10:03:43.495Z,10.19
2023-03-26T10:04:42.521Z,10.12
2023-03-26T10:05:42.473Z,10.01
2023-03-26T10:06:42.473Z,10.21
2023-03-26T10:07:42.441Z,10.09
2023-03-26T10:08:42.436Z,10.12
2023-03-26T10:09:42.426Z,10.12
2023-03-26T10:10:42.431Z,10.28
2023-03-26T10:11:42.420Z,10.36
2023-03-26T10:12:42.407Z,10.40
2023-03-26T10:13:42.390Z,10.30
2023-03-26T10:14:42.425Z,10.44
2023-03-26T10:15:42.424Z,10.17
2023-03-26T10:16:42.446Z,10.28
2023-03-26T10:17:42.413Z,10.15
2023-03-26T10:18:42.337Z,10.18
2023-03-26T10:19:42.333Z,10.10
2023-03-26T10:20:42.385Z,10.09
2023-03-26T10:21:42.331Z,10.15
2023-03-26T10:22:42.297Z,10.14
2023-03-26T10:23:42.284Z,10.19
2023-03-26T10:24:42.287Z,9.97
2023-03-26T10:25:42.300Z,9.86
2023-03-26T10:26:42.265Z,9.79
2023-03-26T10:27:43.278Z,9.81
2023-03-26T10:28:42.274Z,9.73
2023-03-26T10:29:42.235Z,9.73
2023-03-26T10:30:42.248Z,9.79
2023-03-26T10:31:42.202Z,9.93
2023-03-26T10:32:42.203Z,10.04
2023-03-26T10:34:55.614Z,10.04
2023-03-26T10:35:55.630Z,10.07
2023-03-26T10:36:55.592Z,10.21
2023-03-26T10:37:55.572Z,10.19
2023-03-26T10:38:55.587Z,10.17
2023-03-26T10:39:55.564Z,10.21
2023-03-26T10:40:55.808Z,10.18
2023-03-26T10:41:55.533Z,10.24
2023-03-26T10:42:55.529Z,10.21
2023-03-26T10:44:07.263Z,10.17
2023-03-26T10:44:56.497Z,10.18
2023-03-26T10:45:55.522Z,10.09
2023-03-26T10:46:55.474Z,10.06
2023-03-26T10:47:55.500Z,10.09
2023-03-26T10:48:55.488Z,10.18
2023-03-26T10:49:55.445Z,10.09
2023-03-26T10:50:55.748Z,9.96
2023-03-26T10:51:55.442Z,9.96
2023-03-26T10:52:55.419Z,9.99
2023-03-26T10:53:56.538Z,10.01
2023-03-26T10:54:56.524Z,10.12
2023-03-26T10:55:56.523Z,10.14
2023-03-26T10:56:56.596Z,10.14
2023-03-26T10:57:56.497Z,10.25
2023-03-26T10:58:56.517Z,10.21
2023-03-26T10:59:56.478Z,10.34
2023-03-26T11:00:56.663Z,10.47
2023-03-26T11:01:56.475Z,10.55
2023-03-26T11:02:56.459Z,10.42
2023-03-26T11:03:56.458Z,10.46
2023-03-26T11:04:56.435Z,10.56
2023-03-26T11:05:56.494Z,10.40
2023-03-26T11:06:56.401Z,10.39
2023-03-26T11:07:56.380Z,10.36
2023-03-26T11:08:56.406Z,10.40
2023-03-26T11:09:56.367Z,10.30
2023-03-26T11:10:56.535Z,10.12
2023-03-26T11:11:56.354Z,10.15
2023-03-26T11:12:56.338Z,10.15
2023-03-26T11:13:56.338Z,10.10
2023-03-26T11:14:56.325Z,10.06
2023-03-26T11:15:56.361Z,10.00
2023-03-26T11:16:56.300Z,10.00
2023-03-26T11:17:56.354Z,10.01
2023-03-26T11:18:56.283Z,9.94
2023-03-26T11:19:56.275Z,9.94
2023-03-26T11:20:56.633Z,9.96
2023-03-26T11:21:57.245Z,9.89
2023-03-26T11:22:56.232Z,9.99
2023-03-26T11:24:04.470Z,10.00
2023-03-26T11:24:57.220Z,9.97
2023-03-26T11:25:56.225Z,10.03
2023-03-26T11:26:56.200Z,10.07
2023-03-26T11:27:56.200Z,10.03
2023-03-26T11:29:03.680Z,9.89
2023-03-26T11:29:57.167Z,9.81
2023-03-26T11:30:56.476Z,9.75
2023-03-26T11:31:56.152Z,9.66
2023-03-26T11:32:56.161Z,9.66
2023-03-26T11:33:56.130Z,9.52
2023-03-26T11:34:56.132Z,9.34
2023-03-26T11:35:56.181Z,9.25
2023-03-26T11:36:56.109Z,9.18
2023-03-26T11:37:56.094Z,9.10
2023-03-26T11:38:56.085Z,8.73
2023-03-26T11:39:56.665Z,8.76
2023-03-26T11:40:57.391Z,8.76
2023-03-26T11:41:56.060Z,8.76
2023-03-26T11:42:56.045Z,8.73
2023-03-26T11:43:56.042Z,8.90
2023-03-26T11:44:56.032Z,8.84
2023-03-26T11:45:56.030Z,8.88
2023-03-26T11:46:56.084Z,8.87
2023-03-26T11:47:56.044Z,8.96
2023-03-26T11:48:55.991Z,8.91
2023-03-26T11:49:55.993Z,8.91
2023-03-26T11:50:56.230Z,8.93
2023-03-26T11:51:55.988Z,8.96
2023-03-26T11:52:55.943Z,9.05
2023-03-26T11:53:55.946Z,9.09
2023-03-26T11:54:55.933Z,8.99
2023-03-26T11:55:56.010Z,8.97
2023-03-26T11:57:05.968Z,9.06
2023-03-26T11:57:57.819Z,9.10
2023-03-26T11:58:55.885Z,9.05
2023-03-26T11:59:57.697Z,8.88
2023-03-26T12:00:57.086Z,8.97
2023-03-26T12:01:55.913Z,8.96
2023-03-26T12:02:55.877Z,8.88
2023-03-26T12:03:55.842Z,8.81
2023-03-26T12:04:55.885Z,8.75
2023-03-26T12:05:55.845Z,8.58
2023-03-26T12:06:55.804Z,8.50
2023-03-26T12:07:55.780Z,8.32
2023-03-26T12:08:55.781Z,8.28
2023-03-26T12:09:55.778Z,8.03
2023-03-26T12:10:55.970Z,7.92
2023-03-26T12:11:55.750Z,7.84
2023-03-26T12:12:55.737Z,7.63
2023-03-26T12:13:55.726Z,7.63
2023-03-26T12:14:55.719Z,7.63
2023-03-26T12:15:55.829Z,7.79
2023-03-26T12:16:57.071Z,7.55
2023-03-26T12:17:55.753Z,7.71
2023-03-26T12:18:55.715Z,7.59
2023-03-26T12:19:55.728Z,7.52
2023-03-26T12:20:55.940Z,7.63
2023-03-26T12:21:55.665Z,7.52
2023-03-26T12:22:55.635Z,7.47
2023-03-26T12:23:55.626Z,7.47
2023-03-26T12:24:55.619Z,7.47
2023-03-26T12:25:55.636Z,7.42
2023-03-26T12:26:55.605Z,7.45
2023-03-26T12:27:55.606Z,7.58
2023-03-26T12:28:55.593Z,7.56
2023-03-26T12:29:55.572Z,7.67
2023-03-26T12:30:55.712Z,7.62
2023-03-26T12:31:55.639Z,7.59
2023-03-26T12:32:55.633Z,7.69
2023-03-26T12:33:56.614Z,7.55
2023-03-26T12:34:55.530Z,7.63
2023-03-26T12:35:55.541Z,7.75
2023-03-26T12:36:55.534Z,7.72
2023-03-26T12:37:55.493Z,7.74
2023-03-26T12:39:42.985Z,7.85
2023-03-26T12:40:09.044Z,7.85
2023-03-26T12:40:56.569Z,7.74
2023-03-26T12:44:42.025Z,7.74
2023-03-26T12:44:51.385Z,7.72
2023-03-26T12:44:54.825Z,7.79
2023-03-26T12:44:58.891Z,7.78
2023-03-26T12:47:46.216Z,7.72
2023-03-26T12:47:57.522Z,7.79
2023-03-26T12:48:03.495Z,7.66
2023-03-26T12:48:56.473Z,7.71
2023-03-26T12:49:55.389Z,7.75
2023-03-26T12:50:55.626Z,7.77
2023-03-26T12:51:55.437Z,7.81
2023-03-26T12:52:56.345Z,7.97
2023-03-26T12:53:55.360Z,8.10
2023-03-26T12:54:55.323Z,8.14
2023-03-26T12:55:55.304Z,8.15
2023-03-26T12:57:12.059Z,8.11
2023-03-26T12:57:56.286Z,8.25
2023-03-26T12:58:55.398Z,8.32
2023-03-26T12:59:55.277Z,8.22
2023-03-26T13:00:55.593Z,8.45
2023-03-26T13:01:55.313Z,8.48
2023-03-26T13:02:55.356Z,8.44
2023-03-26T13:03:55.235Z,8.53
2023-03-26T13:05:04.246Z,8.55
2023-03-26T13:05:57.210Z,8.66
2023-03-26T13:07:00.861Z,8.69
2023-03-26T13:07:56.267Z,8.58
2023-03-26T13:08:55.181Z,8.71
2023-03-26T13:09:55.188Z,8.60
2023-03-26T13:10:55.277Z,8.57
2023-03-26T13:11:55.175Z,8.72
2023-03-26T13:12:55.138Z,8.78
2023-03-26T13:13:55.128Z,9.05
2023-03-26T13:14:55.124Z,9.16
2023-03-26T13:15:55.121Z,9.20